sensor_id;sensor_type;location;lat;lon;timestamp;P1;durP1;ratioP1;P2;durP2;ratioP2
7302;SDS011;54309;48.150;11.540;2022-08-30T00:01:25;11.00;;;8.80;;
7302;SDS011;54309;48.150;11.540;2022-08-30T00:03:53;11.97;;;8.60;;
7302;SDS011;54309;48.150;11.540;2022-08-30T00:06:23;12.80;;;8.83;;
7302;SDS011;54309;48.150;11.540;2022-08-30T00:08:50;9.00;;;7.77;;
7302;SDS011;54309;48.150;11.540;2022-08-30T00:11:20;10.40;;;7.97;;
7302;SDS011;54309;48.150;11.540;2022-08-30T00:13:48;10.53;;;8.53;;
7302;SDS011;54309;48.150;11.540;2022-08-30T00:16:15;9.97;;;8.60;;
7302;SDS011;54309;48.150;11.540;2022-08-30T00:18:46;10.87;;;8.73;;
7302;SDS011;54309;48.150;11.540;2022-08-30T00:21:15;11.73;;;8.70;;
7302;SDS011;54309;48.150;11.540;2022-08-30T00:23:42;8.77;;;7.87;;
7302;SDS011;54309;48.150;11.540;2022-08-30T00:26:09;9.57;;;8.37;;
7302;SDS011;54309;48.150;11.540;2022-08-30T00:28:36;9.93;;;8.93;;
7302;SDS011;54309;48.150;11.540;2022-08-30T00:31:04;9.67;;;7.87;;
7302;SDS011;54309;48.150;11.540;2022-08-30T00:33:32;11.63;;;7.97;;
7302;SDS011;54309;48.150;11.540;2022-08-30T00:35:59;9.07;;;7.77;;
7302;SDS011;54309;48.150;11.540;2022-08-30T00:38:28;8.50;;;7.60;;
7302;SDS011;54309;48.150;11.540;2022-08-30T00:40:55;11.33;;;7.97;;
7302;SDS011;54309;48.150;11.540;2022-08-30T00:43:25;8.50;;;7.47;;
7302;SDS011;54309;48.150;11.540;2022-08-30T00:45:52;8.93;;;7.63;;
7302;SDS011;54309;48.150;11.540;2022-08-30T00:48:19;9.93;;;7.47;;
7302;SDS011;54309;48.150;11.540;2022-08-30T00:50:47;10.13;;;7.97;;
7302;SDS011;54309;48.150;11.540;2022-08-30T00:53:16;8.67;;;7.67;;
7302;SDS011;54309;48.150;11.540;2022-08-30T00:55:46;8.50;;;7.07;;
7302;SDS011;54309;48.150;11.540;2022-08-30T00:58:15;10.83;;;8.03;;
7302;SDS011;54309;48.150;11.540;2022-08-30T01:00:45;12.17;;;8.30;;
7302;SDS011;54309;48.150;11.540;2022-08-30T01:03:12;10.43;;;7.53;;
7302;SDS011;54309;48.150;11.540;2022-08-30T01:05:40;9.10;;;7.73;;
7302;SDS011;54309;48.150;11.540;2022-08-30T01:08:07;7.83;;;7.13;;
7302;SDS011;54309;48.150;11.540;2022-08-30T01:10:34;8.57;;;7.77;;
7302;SDS011;54309;48.150;11.540;2022-08-30T01:13:04;10.37;;;8.20;;
7302;SDS011;54309;48.150;11.540;2022-08-30T01:15:31;9.77;;;7.50;;
7302;SDS011;54309;48.150;11.540;2022-08-30T01:18:14;11.97;;;7.80;;
7302;SDS011;54309;48.150;11.540;2022-08-30T01:21:01;11.27;;;7.73;;
7302;SDS011;54309;48.150;11.540;2022-08-30T01:23:37;9.60;;;7.50;;
7302;SDS011;54309;48.150;11.540;2022-08-30T01:26:05;8.47;;;7.57;;
7302;SDS011;54309;48.150;11.540;2022-08-30T01:28:33;9.97;;;8.13;;
7302;SDS011;54309;48.150;11.540;2022-08-30T01:31:01;10.10;;;8.30;;
7302;SDS011;54309;48.150;11.540;2022-08-30T01:33:28;7.87;;;7.07;;
7302;SDS011;54309;48.150;11.540;2022-08-30T01:35:56;9.07;;;7.23;;
7302;SDS011;54309;48.150;11.540;2022-08-30T01:38:25;9.23;;;6.90;;
7302;SDS011;54309;48.150;11.540;2022-08-30T01:40:57;9.77;;;8.00;;
7302;SDS011;54309;48.150;11.540;2022-08-30T01:43:24;9.90;;;7.73;;
7302;SDS011;54309;48.150;11.540;2022-08-30T01:45:51;14.10;;;7.27;;
7302;SDS011;54309;48.150;11.540;2022-08-30T01:48:19;9.20;;;8.17;;
7302;SDS011;54309;48.150;11.540;2022-08-30T01:50:46;7.97;;;6.87;;
7302;SDS011;54309;48.150;11.540;2022-08-30T01:53:13;8.87;;;7.90;;
7302;SDS011;54309;48.150;11.540;2022-08-30T01:55:40;10.37;;;7.83;;
7302;SDS011;54309;48.150;11.540;2022-08-30T01:58:09;8.33;;;7.53;;
7302;SDS011;54309;48.150;11.540;2022-08-30T02:00:36;10.27;;;8.27;;
7302;SDS011;54309;48.150;11.540;2022-08-30T02:03:04;9.73;;;7.67;;
7302;SDS011;54309;48.150;11.540;2022-08-30T02:05:31;9.27;;;7.10;;
7302;SDS011;54309;48.150;11.540;2022-08-30T02:07:59;8.30;;;7.20;;
7302;SDS011;54309;48.150;11.540;2022-08-30T02:10:27;8.60;;;6.97;;
7302;SDS011;54309;48.150;11.540;2022-08-30T02:12:54;8.80;;;7.90;;
7302;SDS011;54309;48.150;11.540;2022-08-30T02:15:23;8.60;;;6.60;;
7302;SDS011;54309;48.150;11.540;2022-08-30T02:17:50;8.67;;;6.93;;
7302;SDS011;54309;48.150;11.540;2022-08-30T02:20:18;8.40;;;6.97;;
7302;SDS011;54309;48.150;11.540;2022-08-30T02:22:45;7.73;;;6.30;;
7302;SDS011;54309;48.150;11.540;2022-08-30T02:25:12;9.37;;;6.53;;
7302;SDS011;54309;48.150;11.540;2022-08-30T02:27:39;7.37;;;6.57;;
7302;SDS011;54309;48.150;11.540;2022-08-30T02:30:07;8.30;;;6.57;;
7302;SDS011;54309;48.150;11.540;2022-08-30T02:32:36;8.77;;;7.60;;
7302;SDS011;54309;48.150;11.540;2022-08-30T02:35:05;8.37;;;6.03;;
7302;SDS011;54309;48.150;11.540;2022-08-30T02:37:33;8.17;;;7.37;;
7302;SDS011;54309;48.150;11.540;2022-08-30T02:40:00;8.73;;;7.33;;
7302;SDS011;54309;48.150;11.540;2022-08-30T02:42:27;10.57;;;7.40;;
7302;SDS011;54309;48.150;11.540;2022-08-30T02:44:54;7.50;;;6.40;;
7302;SDS011;54309;48.150;11.540;2022-08-30T02:47:23;10.33;;;7.17;;
7302;SDS011;54309;48.150;11.540;2022-08-30T02:49:52;6.37;;;5.77;;
7302;SDS011;54309;48.150;11.540;2022-08-30T02:52:19;7.70;;;6.70;;
7302;SDS011;54309;48.150;11.540;2022-08-30T02:54:47;7.40;;;6.07;;
7302;SDS011;54309;48.150;11.540;2022-08-30T02:57:14;7.27;;;6.03;;
7302;SDS011;54309;48.150;11.540;2022-08-30T02:59:41;7.67;;;6.20;;
7302;SDS011;54309;48.150;11.540;2022-08-30T03:02:10;7.03;;;6.13;;
7302;SDS011;54309;48.150;11.540;2022-08-30T03:04:37;11.50;;;6.70;;
7302;SDS011;54309;48.150;11.540;2022-08-30T03:07:06;6.87;;;5.93;;
7302;SDS011;54309;48.150;11.540;2022-08-30T03:09:34;5.73;;;5.23;;
7302;SDS011;54309;48.150;11.540;2022-08-30T03:12:01;6.70;;;5.50;;
7302;SDS011;54309;48.150;11.540;2022-08-30T03:14:30;6.87;;;6.17;;
7302;SDS011;54309;48.150;11.540;2022-08-30T03:16:57;8.37;;;5.83;;
7302;SDS011;54309;48.150;11.540;2022-08-30T03:19:24;7.13;;;6.03;;
7302;SDS011;54309;48.150;11.540;2022-08-30T03:21:51;5.90;;;5.40;;
7302;SDS011;54309;48.150;11.540;2022-08-30T03:24:20;6.63;;;5.77;;
7302;SDS011;54309;48.150;11.540;2022-08-30T03:26:47;6.90;;;5.63;;
7302;SDS011;54309;48.150;11.540;2022-08-30T03:29:14;9.37;;;6.03;;
7302;SDS011;54309;48.150;11.540;2022-08-30T03:31:41;7.87;;;6.60;;
7302;SDS011;54309;48.150;11.540;2022-08-30T03:34:08;7.90;;;6.67;;
7302;SDS011;54309;48.150;11.540;2022-08-30T03:36:36;7.83;;;5.70;;
7302;SDS011;54309;48.150;11.540;2022-08-30T03:39:05;6.70;;;6.00;;
7302;SDS011;54309;48.150;11.540;2022-08-30T03:41:34;6.73;;;6.03;;
7302;SDS011;54309;48.150;11.540;2022-08-30T03:44:01;8.37;;;6.53;;
7302;SDS011;54309;48.150;11.540;2022-08-30T03:46:29;7.07;;;6.30;;
7302;SDS011;54309;48.150;11.540;2022-08-30T03:48:57;6.77;;;5.70;;
7302;SDS011;54309;48.150;11.540;2022-08-30T03:51:24;7.67;;;5.80;;
7302;SDS011;54309;48.150;11.540;2022-08-30T03:53:51;8.10;;;6.67;;
7302;SDS011;54309;48.150;11.540;2022-08-30T03:56:18;7.50;;;6.60;;
7302;SDS011;54309;48.150;11.540;2022-08-30T03:58:47;8.40;;;6.47;;
7302;SDS011;54309;48.150;11.540;2022-08-30T04:01:15;9.47;;;6.23;;
7302;SDS011;54309;48.150;11.540;2022-08-30T04:03:42;10.33;;;7.27;;
7302;SDS011;54309;48.150;11.540;2022-08-30T04:06:09;10.47;;;7.00;;
7302;SDS011;54309;48.150;11.540;2022-08-30T04:08:37;8.17;;;7.07;;
7302;SDS011;54309;48.150;11.540;2022-08-30T04:11:05;9.03;;;6.43;;
7302;SDS011;54309;48.150;11.540;2022-08-30T04:13:32;10.47;;;7.10;;
7302;SDS011;54309;48.150;11.540;2022-08-30T04:16:01;8.77;;;6.87;;
7302;SDS011;54309;48.150;11.540;2022-08-30T04:18:28;7.83;;;6.07;;
7302;SDS011;54309;48.150;11.540;2022-08-30T04:20:55;7.00;;;6.30;;
7302;SDS011;54309;48.150;11.540;2022-08-30T04:23:22;10.67;;;7.07;;
7302;SDS011;54309;48.150;11.540;2022-08-30T04:25:49;7.47;;;6.10;;
7302;SDS011;54309;48.150;11.540;2022-08-30T04:28:17;14.17;;;6.57;;
7302;SDS011;54309;48.150;11.540;2022-08-30T04:30:44;7.00;;;6.30;;
7302;SDS011;54309;48.150;11.540;2022-08-30T04:33:13;7.90;;;6.10;;
7302;SDS011;54309;48.150;11.540;2022-08-30T04:35:41;9.27;;;6.13;;
7302;SDS011;54309;48.150;11.540;2022-08-30T04:38:09;7.67;;;5.73;;
7302;SDS011;54309;48.150;11.540;2022-08-30T04:40:37;7.27;;;5.97;;
7302;SDS011;54309;48.150;11.540;2022-08-30T04:43:04;7.93;;;5.67;;
7302;SDS011;54309;48.150;11.540;2022-08-30T04:45:31;7.90;;;6.17;;
7302;SDS011;54309;48.150;11.540;2022-08-30T04:47:58;7.03;;;5.83;;
7302;SDS011;54309;48.150;11.540;2022-08-30T04:50:27;10.30;;;6.13;;
7302;SDS011;54309;48.150;11.540;2022-08-30T04:52:55;9.33;;;5.90;;
7302;SDS011;54309;48.150;11.540;2022-08-30T04:55:22;7.17;;;6.30;;
7302;SDS011;54309;48.150;11.540;2022-08-30T04:57:49;7.23;;;6.30;;
7302;SDS011;54309;48.150;11.540;2022-08-30T05:00:17;8.07;;;6.33;;
7302;SDS011;54309;48.150;11.540;2022-08-30T05:02:45;9.40;;;6.40;;
7302;SDS011;54309;48.150;11.540;2022-08-30T05:05:13;9.33;;;6.47;;
7302;SDS011;54309;48.150;11.540;2022-08-30T05:07:59;7.50;;;6.23;;
7302;SDS011;54309;48.150;11.540;2022-08-30T05:10:26;9.30;;;7.30;;
7302;SDS011;54309;48.150;11.540;2022-08-30T05:12:53;7.63;;;6.47;;
7302;SDS011;54309;48.150;11.540;2022-08-30T05:15:21;7.03;;;6.30;;
7302;SDS011;54309;48.150;11.540;2022-08-30T05:17:48;8.53;;;6.40;;
7302;SDS011;54309;48.150;11.540;2022-08-30T05:20:16;7.70;;;6.90;;
7302;SDS011;54309;48.150;11.540;2022-08-30T05:22:43;8.10;;;6.63;;
7302;SDS011;54309;48.150;11.540;2022-08-30T05:25:16;7.97;;;6.87;;
7302;SDS011;54309;48.150;11.540;2022-08-30T05:27:43;8.00;;;6.67;;
7302;SDS011;54309;48.150;11.540;2022-08-30T05:30:11;10.03;;;6.73;;
7302;SDS011;54309;48.150;11.540;2022-08-30T05:32:38;7.97;;;6.93;;
7302;SDS011;54309;48.150;11.540;2022-08-30T05:35:06;12.30;;;8.10;;
7302;SDS011;54309;48.150;11.540;2022-08-30T05:37:34;7.30;;;6.63;;
7302;SDS011;54309;48.150;11.540;2022-08-30T05:40:01;7.20;;;6.60;;
7302;SDS011;54309;48.150;11.540;2022-08-30T05:42:30;8.07;;;6.70;;
7302;SDS011;54309;48.150;11.540;2022-08-30T05:44:57;10.70;;;7.37;;
7302;SDS011;54309;48.150;11.540;2022-08-30T05:47:24;7.73;;;6.93;;
7302;SDS011;54309;48.150;11.540;2022-08-30T05:49:51;8.33;;;7.00;;
7302;SDS011;54309;48.150;11.540;2022-08-30T05:52:19;7.10;;;6.40;;
7302;SDS011;54309;48.150;11.540;2022-08-30T05:54:50;8.77;;;7.20;;
7302;SDS011;54309;48.150;11.540;2022-08-30T05:57:17;9.40;;;8.10;;
7302;SDS011;54309;48.150;11.540;2022-08-30T05:59:46;7.97;;;7.17;;
7302;SDS011;54309;48.150;11.540;2022-08-30T06:02:13;8.37;;;7.43;;
7302;SDS011;54309;48.150;11.540;2022-08-30T06:04:40;8.60;;;7.80;;
7302;SDS011;54309;48.150;11.540;2022-08-30T06:07:07;9.93;;;7.40;;
7302;SDS011;54309;48.150;11.540;2022-08-30T06:09:35;9.27;;;8.27;;
7302;SDS011;54309;48.150;11.540;2022-08-30T06:12:02;8.80;;;8.00;;
7302;SDS011;54309;48.150;11.540;2022-08-30T06:14:29;11.13;;;8.10;;
7302;SDS011;54309;48.150;11.540;2022-08-30T06:16:58;8.47;;;7.67;;
7302;SDS011;54309;48.150;11.540;2022-08-30T06:19:25;8.53;;;7.77;;
7302;SDS011;54309;48.150;11.540;2022-08-30T06:21:52;9.40;;;8.10;;
7302;SDS011;54309;48.150;11.540;2022-08-30T06:24:19;9.27;;;8.30;;
7302;SDS011;54309;48.150;11.540;2022-08-30T06:26:47;9.00;;;8.10;;
7302;SDS011;54309;48.150;11.540;2022-08-30T06:29:15;10.10;;;8.80;;
7302;SDS011;54309;48.150;11.540;2022-08-30T06:31:42;10.00;;;9.10;;
7302;SDS011;54309;48.150;11.540;2022-08-30T06:34:11;9.87;;;8.83;;
7302;SDS011;54309;48.150;11.540;2022-08-30T06:36:38;12.30;;;8.70;;
7302;SDS011;54309;48.150;11.540;2022-08-30T06:39:06;9.77;;;8.80;;
7302;SDS011;54309;48.150;11.540;2022-08-30T06:41:35;10.97;;;9.50;;
7302;SDS011;54309;48.150;11.540;2022-08-30T06:44:03;9.57;;;8.70;;
7302;SDS011;54309;48.150;11.540;2022-08-30T06:46:32;10.57;;;9.57;;
7302;SDS011;54309;48.150;11.540;2022-08-30T06:48:59;10.37;;;9.37;;
7302;SDS011;54309;48.150;11.540;2022-08-30T06:51:29;10.80;;;9.00;;
7302;SDS011;54309;48.150;11.540;2022-08-30T06:53:57;10.00;;;9.03;;
7302;SDS011;54309;48.150;11.540;2022-08-30T06:56:24;9.53;;;8.60;;
7302;SDS011;54309;48.150;11.540;2022-08-30T06:58:51;10.10;;;9.10;;
7302;SDS011;54309;48.150;11.540;2022-08-30T07:01:20;10.07;;;8.53;;
7302;SDS011;54309;48.150;11.540;2022-08-30T07:03:47;14.10;;;9.83;;
7302;SDS011;54309;48.150;11.540;2022-08-30T07:06:14;9.60;;;8.67;;
7302;SDS011;54309;48.150;11.540;2022-08-30T07:08:44;11.13;;;9.60;;
7302;SDS011;54309;48.150;11.540;2022-08-30T07:11:12;9.77;;;8.97;;
7302;SDS011;54309;48.150;11.540;2022-08-30T07:13:39;10.13;;;9.23;;
7302;SDS011;54309;48.150;11.540;2022-08-30T07:16:09;15.07;;;9.57;;
7302;SDS011;54309;48.150;11.540;2022-08-30T07:18:36;9.93;;;9.13;;
7302;SDS011;54309;48.150;11.540;2022-08-30T07:21:19;11.00;;;9.90;;
7302;SDS011;54309;48.150;11.540;2022-08-30T07:23:48;10.03;;;9.17;;
7302;SDS011;54309;48.150;11.540;2022-08-30T07:26:16;10.20;;;9.30;;
7302;SDS011;54309;48.150;11.540;2022-08-30T07:28:44;11.63;;;8.67;;
7302;SDS011;54309;48.150;11.540;2022-08-30T07:31:12;10.03;;;9.00;;
7302;SDS011;54309;48.150;11.540;2022-08-30T07:33:39;10.90;;;9.00;;
7302;SDS011;54309;48.150;11.540;2022-08-30T07:36:07;10.43;;;9.53;;
7302;SDS011;54309;48.150;11.540;2022-08-30T07:38:34;10.27;;;9.27;;
7302;SDS011;54309;48.150;11.540;2022-08-30T07:41:03;10.05;;;9.23;;
7302;SDS011;54309;48.150;11.540;2022-08-30T07:43:31;19.27;;;10.90;;
7302;SDS011;54309;48.150;11.540;2022-08-30T07:46:02;10.37;;;9.40;;
7302;SDS011;54309;48.150;11.540;2022-08-30T07:48:29;11.93;;;10.67;;
7302;SDS011;54309;48.150;11.540;2022-08-30T07:50:56;10.32;;;9.32;;
7302;SDS011;54309;48.150;11.540;2022-08-30T07:53:24;9.95;;;8.95;;
7302;SDS011;54309;48.150;11.540;2022-08-30T07:55:51;10.57;;;9.57;;
7302;SDS011;54309;48.150;11.540;2022-08-30T07:58:20;9.70;;;8.80;;
7302;SDS011;54309;48.150;11.540;2022-08-30T08:00:47;9.30;;;8.50;;
7302;SDS011;54309;48.150;11.540;2022-08-30T08:03:14;13.07;;;11.80;;
7302;SDS011;54309;48.150;11.540;2022-08-30T08:05:42;10.63;;;9.73;;
7302;SDS011;54309;48.150;11.540;2022-08-30T08:08:10;9.97;;;9.10;;
7302;SDS011;54309;48.150;11.540;2022-08-30T08:10:38;9.57;;;8.80;;
7302;SDS011;54309;48.150;11.540;2022-08-30T08:13:05;10.60;;;9.65;;
7302;SDS011;54309;48.150;11.540;2022-08-30T08:15:34;13.05;;;10.65;;
7302;SDS011;54309;48.150;11.540;2022-08-30T08:18:01;10.27;;;9.38;;
7302;SDS011;54309;48.150;11.540;2022-08-30T08:20:29;10.80;;;9.85;;
7302;SDS011;54309;48.150;11.540;2022-08-30T08:22:56;9.48;;;8.68;;
7302;SDS011;54309;48.150;11.540;2022-08-30T08:25:24;9.30;;;8.50;;
7302;SDS011;54309;48.150;11.540;2022-08-30T08:27:51;10.38;;;9.05;;
7302;SDS011;54309;48.150;11.540;2022-08-30T08:30:18;9.95;;;8.95;;
7302;SDS011;54309;48.150;11.540;2022-08-30T08:32:47;10.38;;;9.32;;
7302;SDS011;54309;48.150;11.540;2022-08-30T08:35:15;9.18;;;8.48;;
7302;SDS011;54309;48.150;11.540;2022-08-30T08:37:42;8.88;;;8.27;;
7302;SDS011;54309;48.150;11.540;2022-08-30T08:40:13;10.88;;;8.80;;
7302;SDS011;54309;48.150;11.540;2022-08-30T08:42:45;10.40;;;9.35;;
7302;SDS011;54309;48.150;11.540;2022-08-30T08:45:16;9.45;;;8.50;;
7302;SDS011;54309;48.150;11.540;2022-08-30T08:47:49;11.13;;;10.13;;
7302;SDS011;54309;48.150;11.540;2022-08-30T08:50:18;10.02;;;9.18;;
7302;SDS011;54309;48.150;11.540;2022-08-30T08:52:47;9.43;;;8.48;;
7302;SDS011;54309;48.150;11.540;2022-08-30T08:55:32;8.88;;;8.23;;
7302;SDS011;54309;48.150;11.540;2022-08-30T08:58:00;9.73;;;8.90;;
7302;SDS011;54309;48.150;11.540;2022-08-30T09:00:27;8.63;;;8.02;;
7302;SDS011;54309;48.150;11.540;2022-08-30T09:02:58;9.50;;;8.82;;
7302;SDS011;54309;48.150;11.540;2022-08-30T09:05:26;10.13;;;9.30;;
7302;SDS011;54309;48.150;11.540;2022-08-30T09:07:56;10.63;;;9.73;;
7302;SDS011;54309;48.150;11.540;2022-08-30T09:10:25;12.60;;;11.40;;
7302;SDS011;54309;48.150;11.540;2022-08-30T09:12:53;9.88;;;9.05;;
7302;SDS011;54309;48.150;11.540;2022-08-30T09:15:22;9.27;;;8.48;;
7302;SDS011;54309;48.150;11.540;2022-08-30T09:17:51;8.35;;;7.85;;
7302;SDS011;54309;48.150;11.540;2022-08-30T09:20:28;9.10;;;8.40;;
7302;SDS011;54309;48.150;11.540;2022-08-30T09:22:56;9.18;;;8.57;;
7302;SDS011;54309;48.150;11.540;2022-08-30T09:25:24;8.20;;;7.60;;
7302;SDS011;54309;48.150;11.540;2022-08-30T09:27:52;8.77;;;8.07;;
7302;SDS011;54309;48.150;11.540;2022-08-30T09:30:20;8.35;;;7.75;;
7302;SDS011;54309;48.150;11.540;2022-08-30T09:32:49;9.15;;;8.35;;
7302;SDS011;54309;48.150;11.540;2022-08-30T09:35:18;9.25;;;8.52;;
7302;SDS011;54309;48.150;11.540;2022-08-30T09:37:51;10.00;;;9.05;;
7302;SDS011;54309;48.150;11.540;2022-08-30T09:40:27;8.88;;;8.10;;
7302;SDS011;54309;48.150;11.540;2022-08-30T09:42:58;9.65;;;8.75;;
7302;SDS011;54309;48.150;11.540;2022-08-30T09:45:30;8.40;;;7.80;;
7302;SDS011;54309;48.150;11.540;2022-08-30T09:47:58;9.00;;;8.40;;
7302;SDS011;54309;48.150;11.540;2022-08-30T09:50:26;8.88;;;7.93;;
7302;SDS011;54309;48.150;11.540;2022-08-30T09:53:00;8.82;;;8.13;;
7302;SDS011;54309;48.150;11.540;2022-08-30T09:55:37;8.57;;;7.97;;
7302;SDS011;54309;48.150;11.540;2022-08-30T09:58:07;8.60;;;7.80;;
7302;SDS011;54309;48.150;11.540;2022-08-30T10:00:37;9.45;;;8.65;;
7302;SDS011;54309;48.150;11.540;2022-08-30T10:05:51;8.93;;;8.18;;
7302;SDS011;54309;48.150;11.540;2022-08-30T10:08:22;8.57;;;7.88;;
7302;SDS011;54309;48.150;11.540;2022-08-30T10:10:52;9.45;;;8.52;;
7302;SDS011;54309;48.150;11.540;2022-08-30T10:16:04;9.85;;;9.05;;
7302;SDS011;54309;48.150;11.540;2022-08-30T10:18:34;9.85;;;9.10;;
7302;SDS011;54309;48.150;11.540;2022-08-30T10:21:06;11.40;;;10.23;;
7302;SDS011;54309;48.150;11.540;2022-08-30T10:23:39;12.27;;;11.27;;
7302;SDS011;54309;48.150;11.540;2022-08-30T10:26:10;9.30;;;8.63;;
7302;SDS011;54309;48.150;11.540;2022-08-30T10:28:39;9.00;;;8.43;;
7302;SDS011;54309;48.150;11.540;2022-08-30T10:31:09;9.32;;;8.77;;
7302;SDS011;54309;48.150;11.540;2022-08-30T10:33:37;9.45;;;8.70;;
7302;SDS011;54309;48.150;11.540;2022-08-30T10:36:08;10.48;;;9.88;;
7302;SDS011;54309;48.150;11.540;2022-08-30T10:38:38;13.68;;;12.55;;
7302;SDS011;54309;48.150;11.540;2022-08-30T10:41:19;9.30;;;8.80;;
7302;SDS011;54309;48.150;11.540;2022-08-30T10:43:51;9.35;;;8.75;;
7302;SDS011;54309;48.150;11.540;2022-08-30T10:46:22;10.48;;;9.90;;
7302;SDS011;54309;48.150;11.540;2022-08-30T11:34:54;10.60;;;9.80;;
7302;SDS011;54309;48.150;11.540;2022-08-30T11:37:32;10.10;;;9.27;;
7302;SDS011;54309;48.150;11.540;2022-08-30T11:40:01;10.18;;;9.68;;
7302;SDS011;54309;48.150;11.540;2022-08-30T11:42:34;10.60;;;9.90;;
7302;SDS011;54309;48.150;11.540;2022-08-30T11:56:17;11.27;;;10.50;;
7302;SDS011;54309;48.150;11.540;2022-08-30T11:59:36;10.15;;;9.65;;
7302;SDS011;54309;48.150;11.540;2022-08-30T12:10:59;10.02;;;9.43;;
7302;SDS011;54309;48.150;11.540;2022-08-30T12:13:59;9.25;;;8.65;;
7302;SDS011;54309;48.150;11.540;2022-08-30T12:27:41;10.05;;;9.35;;
7302;SDS011;54309;48.150;11.540;2022-08-30T12:30:10;10.15;;;9.07;;
7302;SDS011;54309;48.150;11.540;2022-08-30T12:32:42;9.82;;;9.05;;
7302;SDS011;54309;48.150;11.540;2022-08-30T12:35:16;9.32;;;8.55;;
7302;SDS011;54309;48.150;11.540;2022-08-30T12:37:52;9.52;;;8.93;;
7302;SDS011;54309;48.150;11.540;2022-08-30T12:40:21;8.38;;;7.88;;
7302;SDS011;54309;48.150;11.540;2022-08-30T12:42:49;10.50;;;9.70;;
7302;SDS011;54309;48.150;11.540;2022-08-30T12:45:19;9.63;;;8.80;;
7302;SDS011;54309;48.150;11.540;2022-08-30T12:47:47;9.02;;;8.43;;
7302;SDS011;54309;48.150;11.540;2022-08-30T12:50:17;9.27;;;8.77;;
7302;SDS011;54309;48.150;11.540;2022-08-30T12:52:45;9.05;;;8.57;;
7302;SDS011;54309;48.150;11.540;2022-08-30T12:55:14;9.32;;;8.68;;
7302;SDS011;54309;48.150;11.540;2022-08-30T12:57:56;8.82;;;8.32;;
7302;SDS011;54309;48.150;11.540;2022-08-30T13:00:25;9.18;;;8.48;;
7302;SDS011;54309;48.150;11.540;2022-08-30T13:02:54;9.15;;;8.65;;
7302;SDS011;54309;48.150;11.540;2022-08-30T13:05:26;9.65;;;9.05;;
7302;SDS011;54309;48.150;11.540;2022-08-30T13:08:06;9.85;;;9.15;;
7302;SDS011;54309;48.150;11.540;2022-08-30T13:10:34;9.57;;;8.98;;
7302;SDS011;54309;48.150;11.540;2022-08-30T13:13:03;10.45;;;9.85;;
7302;SDS011;54309;48.150;11.540;2022-08-30T13:15:32;9.95;;;9.20;;
7302;SDS011;54309;48.150;11.540;2022-08-30T13:20:45;9.68;;;9.18;;
7302;SDS011;54309;48.150;11.540;2022-08-30T13:23:20;10.43;;;9.68;;
7302;SDS011;54309;48.150;11.540;2022-08-30T13:25:48;10.15;;;9.65;;
7302;SDS011;54309;48.150;11.540;2022-08-30T13:28:15;10.63;;;10.07;;
7302;SDS011;54309;48.150;11.540;2022-08-30T13:30:46;10.25;;;9.65;;
7302;SDS011;54309;48.150;11.540;2022-08-30T13:33:13;12.13;;;10.95;;
7302;SDS011;54309;48.150;11.540;2022-08-30T13:35:41;13.30;;;12.00;;
7302;SDS011;54309;48.150;11.540;2022-08-30T13:52:14;11.52;;;10.80;;
7302;SDS011;54309;48.150;11.540;2022-08-30T13:54:41;10.18;;;9.40;;
7302;SDS011;54309;48.150;11.540;2022-08-30T13:57:10;9.77;;;9.27;;
7302;SDS011;54309;48.150;11.540;2022-08-30T13:59:37;10.35;;;9.45;;
7302;SDS011;54309;48.150;11.540;2022-08-30T14:02:04;10.27;;;9.68;;
7302;SDS011;54309;48.150;11.540;2022-08-30T14:04:31;9.63;;;9.13;;
7302;SDS011;54309;48.150;11.540;2022-08-30T14:06:59;9.70;;;9.10;;
7302;SDS011;54309;48.150;11.540;2022-08-30T14:09:27;9.70;;;9.10;;
7302;SDS011;54309;48.150;11.540;2022-08-30T14:11:54;12.27;;;11.20;;
7302;SDS011;54309;48.150;11.540;2022-08-30T14:14:22;10.93;;;10.13;;
7302;SDS011;54309;48.150;11.540;2022-08-30T14:16:49;11.88;;;10.82;;
7302;SDS011;54309;48.150;11.540;2022-08-30T14:19:16;9.63;;;9.02;;
7302;SDS011;54309;48.150;11.540;2022-08-30T14:21:44;9.38;;;8.77;;
7302;SDS011;54309;48.150;11.540;2022-08-30T14:24:11;11.30;;;10.13;;
7302;SDS011;54309;48.150;11.540;2022-08-30T14:26:40;9.98;;;9.32;;
7302;SDS011;54309;48.150;11.540;2022-08-30T14:29:10;9.27;;;8.68;;
7302;SDS011;54309;48.150;11.540;2022-08-30T14:31:37;8.82;;;8.40;;
7302;SDS011;54309;48.150;11.540;2022-08-30T14:34:05;9.23;;;8.73;;
7302;SDS011;54309;48.150;11.540;2022-08-30T14:36:33;8.98;;;8.48;;
7302;SDS011;54309;48.150;11.540;2022-08-30T14:39:02;8.70;;;8.30;;
7302;SDS011;54309;48.150;11.540;2022-08-30T14:41:30;8.60;;;8.15;;
7302;SDS011;54309;48.150;11.540;2022-08-30T14:43:59;9.15;;;8.65;;
7302;SDS011;54309;48.150;11.540;2022-08-30T14:46:26;8.40;;;7.72;;
7302;SDS011;54309;48.150;11.540;2022-08-30T14:48:53;9.40;;;8.80;;
7302;SDS011;54309;48.150;11.540;2022-08-30T14:51:21;8.52;;;8.13;;
7302;SDS011;54309;48.150;11.540;2022-08-30T14:53:50;8.80;;;8.10;;
7302;SDS011;54309;48.150;11.540;2022-08-30T14:56:17;8.48;;;8.07;;
7302;SDS011;54309;48.150;11.540;2022-08-30T14:58:46;8.40;;;7.95;;
7302;SDS011;54309;48.150;11.540;2022-08-30T15:01:14;8.10;;;7.68;;
7302;SDS011;54309;48.150;11.540;2022-08-30T15:03:42;8.20;;;7.80;;
7302;SDS011;54309;48.150;11.540;2022-08-30T15:06:09;9.23;;;8.55;;
7302;SDS011;54309;48.150;11.540;2022-08-30T15:08:37;8.52;;;8.02;;
7302;SDS011;54309;48.150;11.540;2022-08-30T15:11:06;8.15;;;7.75;;
7302;SDS011;54309;48.150;11.540;2022-08-30T15:13:33;8.57;;;8.13;;
7302;SDS011;54309;48.150;11.540;2022-08-30T15:16:00;8.55;;;8.15;;
7302;SDS011;54309;48.150;11.540;2022-08-30T15:18:29;8.27;;;7.75;;
7302;SDS011;54309;48.150;11.540;2022-08-30T15:20:57;8.77;;;8.18;;
7302;SDS011;54309;48.150;11.540;2022-08-30T15:23:24;8.57;;;8.07;;
7302;SDS011;54309;48.150;11.540;2022-08-30T15:25:51;8.73;;;8.13;;
7302;SDS011;54309;48.150;11.540;2022-08-30T15:28:19;9.10;;;8.60;;
7302;SDS011;54309;48.150;11.540;2022-08-30T15:30:46;8.68;;;8.27;;
7302;SDS011;54309;48.150;11.540;2022-08-30T15:33:14;8.70;;;8.20;;
7302;SDS011;54309;48.150;11.540;2022-08-30T15:35:42;8.90;;;8.32;;
7302;SDS011;54309;48.150;11.540;2022-08-30T15:38:10;8.40;;;8.00;;
7302;SDS011;54309;48.150;11.540;2022-08-30T15:40:37;8.63;;;8.15;;
7302;SDS011;54309;48.150;11.540;2022-08-30T15:43:05;8.45;;;7.90;;
7302;SDS011;54309;48.150;11.540;2022-08-30T15:45:32;8.52;;;8.02;;
7302;SDS011;54309;48.150;11.540;2022-08-30T15:47:59;8.35;;;7.78;;
7302;SDS011;54309;48.150;11.540;2022-08-30T15:50:27;9.02;;;8.40;;
7302;SDS011;54309;48.150;11.540;2022-08-30T15:52:55;8.80;;;8.25;;
7302;SDS011;54309;48.150;11.540;2022-08-30T15:55:22;8.52;;;8.10;;
7302;SDS011;54309;48.150;11.540;2022-08-30T15:57:49;8.25;;;7.80;;
7302;SDS011;54309;48.150;11.540;2022-08-30T16:00:17;8.50;;;8.00;;
7302;SDS011;54309;48.150;11.540;2022-08-30T16:02:44;8.80;;;8.23;;
7302;SDS011;54309;48.150;11.540;2022-08-30T16:05:13;8.55;;;8.10;;
7302;SDS011;54309;48.150;11.540;2022-08-30T16:07:41;8.38;;;7.97;;
7302;SDS011;54309;48.150;11.540;2022-08-30T16:10:12;8.48;;;7.97;;
7302;SDS011;54309;48.150;11.540;2022-08-30T16:12:39;7.97;;;7.47;;
7302;SDS011;54309;48.150;11.540;2022-08-30T16:15:07;8.43;;;7.70;;
7302;SDS011;54309;48.150;11.540;2022-08-30T16:17:34;8.73;;;8.10;;
7302;SDS011;54309;48.150;11.540;2022-08-30T16:20:02;8.63;;;8.10;;
7302;SDS011;54309;48.150;11.540;2022-08-30T16:22:29;8.63;;;8.13;;
7302;SDS011;54309;48.150;11.540;2022-08-30T16:24:56;8.57;;;8.07;;
7302;SDS011;54309;48.150;11.540;2022-08-30T16:27:25;8.10;;;7.70;;
7302;SDS011;54309;48.150;11.540;2022-08-30T16:29:52;8.13;;;7.72;;
7302;SDS011;54309;48.150;11.540;2022-08-30T16:38:21;8.65;;;7.95;;